createdAt,value
2018-11-28T00:00:44.908Z,36.20
2018-11-28T00:03:33.679Z,35.13
2018-11-28T00:06:22.463Z,37.47
2018-11-28T00:09:11.233Z,40.07
2018-11-28T00:12:00.377Z,34.60
2018-11-28T00:14:49.134Z,35.50
2018-11-28T00:17:38.041Z,31.63
2018-11-28T00:20:26.861Z,40.53
2018-11-28T00:23:15.925Z,38.20
2018-11-28T00:26:04.713Z,43.33
2018-11-28T00:28:53.494Z,27.97
2018-11-28T00:31:42.277Z,40.63
2018-11-28T00:34:31.031Z,38.87
2018-11-28T00:37:19.822Z,33.40
2018-11-28T00:40:10.004Z,33.83
2018-11-28T00:42:58.815Z,35.90
2018-11-28T00:45:47.904Z,39.60
2018-11-28T00:48:36.683Z,38.43
2018-11-28T00:51:25.463Z,35.60
2018-11-28T00:54:14.238Z,43.83
2018-11-28T00:57:03.000Z,35.93
2018-11-28T00:59:51.798Z,37.10
2018-11-28T01:02:40.594Z,35.00
2018-11-28T01:05:29.363Z,35.30
2018-11-28T01:08:18.764Z,35.57
2018-11-28T01:11:07.640Z,42.70
2018-11-28T01:13:56.409Z,38.07
2018-11-28T01:16:45.467Z,32.77
2018-11-28T01:19:34.254Z,32.67
2018-11-28T01:22:23.052Z,33.77
2018-11-28T01:25:31.223Z,36.30
2018-11-28T01:28:20.001Z,35.17
2018-11-28T01:31:08.819Z,35.57
2018-11-28T01:33:57.549Z,38.50
2018-11-28T01:36:46.621Z,33.77
2018-11-28T01:39:35.385Z,34.90
2018-11-28T01:42:24.183Z,37.30
2018-11-28T01:45:14.031Z,38.37
2018-11-28T01:48:02.860Z,38.93
2018-11-28T01:50:51.619Z,34.33
2018-11-28T01:53:40.403Z,38.43
2018-11-28T01:56:29.171Z,36.17
2018-11-28T01:59:18.231Z,33.50
2018-11-28T02:02:09.688Z,37.73
2018-11-28T02:04:58.478Z,33.83
2018-11-28T02:07:47.242Z,40.03
2018-11-28T02:10:36.031Z,39.30
2018-11-28T02:13:25.059Z,36.57
2018-11-28T02:16:13.833Z,38.40
2018-11-28T02:19:02.577Z,45.10
2018-11-28T02:21:51.358Z,35.77
2018-11-28T02:24:40.131Z,32.10
2018-11-28T02:27:28.916Z,38.07
2018-11-28T02:30:21.574Z,40.30
2018-11-28T02:33:10.347Z,38.43
2018-11-28T02:35:59.123Z,36.60
2018-11-28T02:38:48.204Z,35.77
2018-11-28T02:41:36.984Z,33.43
2018-11-28T02:44:26.028Z,36.30
2018-11-28T02:47:14.808Z,39.93
2018-11-28T02:50:03.568Z,38.00
2018-11-28T02:52:52.357Z,36.87
2018-11-28T02:55:41.194Z,41.07
2018-11-28T02:58:29.978Z,33.10
2018-11-28T03:01:18.750Z,37.20
2018-11-28T03:04:07.533Z,36.33
2018-11-28T03:06:56.294Z,39.27
2018-11-28T03:09:45.350Z,36.30
2018-11-28T03:12:34.116Z,35.97
2018-11-28T03:15:33.800Z,37.33
2018-11-28T03:18:23.282Z,37.67
2018-11-28T03:21:12.058Z,41.40
2018-11-28T03:24:00.830Z,35.37
2018-11-28T03:26:49.602Z,36.10
2018-11-28T03:29:38.397Z,31.17
2018-11-28T03:32:27.175Z,41.30
2018-11-28T03:35:16.439Z,38.97
2018-11-28T03:38:05.311Z,32.00
2018-11-28T03:40:54.378Z,40.57
2018-11-28T03:43:43.170Z,37.70
2018-11-28T03:46:32.220Z,46.63
2018-11-28T03:49:21.167Z,39.20
2018-11-28T03:52:10.145Z,42.80
2018-11-28T03:54:59.127Z,40.60
2018-11-28T03:57:49.042Z,40.90
2018-11-28T04:00:38.207Z,34.97
2018-11-28T04:03:26.977Z,37.60
2018-11-28T04:06:15.745Z,52.27
2018-11-28T04:08:45.172Z,57.80
2018-11-28T04:11:33.955Z,37.80
2018-11-28T04:14:22.718Z,36.77
2018-11-28T04:17:11.504Z,39.77
2018-11-28T04:20:00.260Z,34.07
2018-11-28T04:22:49.054Z,34.63
2018-11-28T04:25:37.821Z,39.47
2018-11-28T04:28:26.613Z,36.53
2018-11-28T04:31:15.385Z,34.97
2018-11-28T04:34:04.174Z,37.10
2018-11-28T04:36:53.323Z,41.20
2018-11-28T04:39:42.120Z,37.97
2018-11-28T04:42:30.880Z,42.37
2018-11-28T04:45:39.042Z,39.37
2018-11-28T04:48:27.825Z,35.47
2018-11-28T04:51:16.668Z,39.37
2018-11-28T04:54:05.377Z,38.80
2018-11-28T04:56:54.159Z,37.43
2018-11-28T04:59:42.932Z,34.30
2018-11-28T05:02:31.722Z,39.00
2018-11-28T05:05:20.490Z,38.57
2018-11-28T05:08:09.364Z,44.63
2018-11-28T05:10:58.053Z,35.63
2018-11-28T05:13:47.098Z,36.58
2018-11-28T05:16:35.892Z,41.20
2018-11-28T05:19:24.941Z,38.90
2018-11-28T05:22:13.729Z,43.30
2018-11-28T05:25:02.804Z,34.23
2018-11-28T05:27:52.456Z,34.67
2018-11-28T05:30:41.396Z,37.87
2018-11-28T05:33:30.182Z,42.80
2018-11-28T05:36:18.934Z,33.43
2018-11-28T05:39:08.068Z,37.30
2018-11-28T05:41:56.828Z,34.10
2018-11-28T05:44:45.908Z,39.33
2018-11-28T05:47:34.960Z,42.00
2018-11-28T05:50:23.770Z,42.40
2018-11-28T05:53:12.528Z,35.30
2018-11-28T05:56:01.306Z,35.83
2018-11-28T05:58:50.073Z,42.37
2018-11-28T06:01:38.860Z,36.50
2018-11-28T06:04:27.889Z,36.77
2018-11-28T06:07:16.824Z,35.33
2018-11-28T06:10:06.471Z,31.43
2018-11-28T06:12:55.760Z,36.50
2018-11-28T06:15:45.113Z,39.57
2018-11-28T06:18:33.876Z,38.00
2018-11-28T06:21:22.648Z,40.43
2018-11-28T06:24:11.409Z,35.20
2018-11-28T06:27:00.187Z,30.30
2018-11-28T06:29:48.941Z,36.47
2018-11-28T06:32:37.878Z,37.35
2018-11-28T06:35:26.640Z,34.40
2018-11-28T06:38:15.426Z,31.97
2018-11-28T06:41:04.206Z,30.40
2018-11-28T06:43:53.021Z,35.73
2018-11-28T06:46:42.111Z,33.43
2018-11-28T06:49:30.879Z,35.00
2018-11-28T06:52:19.931Z,32.47
2018-11-28T06:55:10.559Z,31.73
2018-11-28T06:57:59.785Z,33.40
2018-11-28T07:00:49.166Z,33.07
2018-11-28T07:03:38.124Z,37.60
2018-11-28T07:06:27.753Z,36.63
2018-11-28T07:09:16.674Z,33.37
2018-11-28T07:12:05.689Z,34.97
2018-11-28T07:14:54.994Z,39.33
2018-11-28T07:17:44.264Z,34.77
2018-11-28T07:20:33.540Z,32.97
2018-11-28T07:23:22.512Z,38.20
2018-11-28T07:26:11.450Z,42.43
2018-11-28T07:29:00.397Z,47.23
2018-11-28T07:31:49.369Z,41.17
2018-11-28T07:34:38.356Z,36.93
2018-11-28T07:37:27.276Z,39.77
2018-11-28T07:40:26.299Z,34.37
2018-11-28T07:43:15.404Z,38.30
2018-11-28T07:46:04.676Z,36.13
2018-11-28T07:48:53.719Z,39.47
2018-11-28T07:51:42.644Z,46.37
2018-11-28T07:54:31.629Z,42.15
2018-11-28T07:57:20.557Z,37.00
2018-11-28T08:00:15.921Z,34.87
2018-11-28T08:03:05.767Z,35.17
2018-11-28T08:05:55.089Z,28.03
2018-11-28T08:08:44.021Z,33.30
2018-11-28T08:11:32.892Z,32.57
2018-11-28T08:14:21.799Z,41.50
2018-11-28T08:17:10.574Z,32.63
2018-11-28T08:19:59.344Z,31.20
2018-11-28T08:22:48.127Z,29.83
2018-11-28T08:25:36.895Z,31.80
2018-11-28T08:28:25.699Z,30.47
2018-11-28T08:31:14.741Z,28.17
2018-11-28T08:34:03.507Z,31.93
2018-11-28T08:36:52.559Z,29.77
2018-11-28T08:39:41.353Z,25.40
2018-11-28T08:42:30.143Z,37.20
2018-11-28T08:45:19.842Z,31.73
2018-11-28T08:48:08.488Z,37.23
2018-11-28T08:50:57.282Z,34.10
2018-11-28T08:53:46.057Z,29.43
2018-11-28T08:56:34.839Z,33.43
2018-11-28T08:59:23.604Z,34.87
2018-11-28T09:02:12.703Z,30.60
2018-11-28T09:05:01.744Z,30.23
2018-11-28T09:07:50.794Z,40.50
2018-11-28T09:10:39.555Z,33.67
2018-11-28T09:13:28.346Z,31.60
2018-11-28T09:16:17.115Z,35.67
2018-11-28T09:19:05.900Z,35.75
2018-11-28T09:21:54.662Z,34.93
2018-11-28T09:24:43.435Z,31.83
2018-11-28T09:27:32.455Z,40.53
2018-11-28T09:30:21.288Z,29.10
2018-11-28T09:33:10.050Z,32.17
2018-11-28T09:35:59.158Z,32.13
2018-11-28T09:38:47.941Z,33.77
2018-11-28T09:41:37.004Z,33.53
2018-11-28T09:44:25.800Z,39.87
2018-11-28T09:47:14.557Z,30.07
2018-11-28T09:50:03.334Z,35.83
2018-11-28T09:52:52.124Z,32.83
2018-11-28T09:55:40.909Z,33.00
2018-11-28T09:58:29.666Z,34.30
2018-11-28T10:01:18.749Z,29.53
2018-11-28T10:04:07.582Z,30.47
2018-11-28T10:06:56.367Z,31.03
2018-11-28T10:09:45.414Z,37.00
2018-11-28T10:12:34.476Z,30.97
2018-11-28T10:15:46.246Z,39.97
2018-11-28T10:18:35.884Z,29.47
2018-11-28T10:21:23.793Z,42.70
2018-11-28T10:24:12.582Z,37.37
2018-11-28T10:27:01.339Z,32.47
2018-11-28T10:29:50.113Z,36.77
2018-11-28T10:32:39.234Z,36.30
2018-11-28T10:35:28.060Z,31.63
2018-11-28T10:38:17.096Z,34.90
2018-11-28T10:41:06.286Z,32.83
2018-11-28T10:43:55.089Z,34.00
2018-11-28T10:46:43.901Z,33.37
2018-11-28T10:49:32.957Z,36.03
2018-11-28T10:52:22.085Z,32.47
2018-11-28T10:55:30.228Z,32.23
2018-11-28T10:58:18.996Z,30.30
2018-11-28T11:01:26.839Z,33.97
2018-11-28T11:04:16.236Z,30.77
2018-11-28T11:07:23.970Z,34.30
2018-11-28T11:10:31.723Z,36.63
2018-11-28T11:13:39.474Z,31.13
2018-11-28T11:16:47.218Z,31.03
2018-11-28T11:19:36.009Z,38.13
2018-11-28T11:22:24.772Z,36.13
2018-11-28T11:25:13.888Z,32.03
2018-11-28T11:28:02.640Z,33.60
2018-11-28T11:30:51.435Z,35.20
2018-11-28T11:33:40.208Z,44.60
2018-11-28T11:36:29.016Z,29.47
2018-11-28T11:39:17.765Z,35.63
2018-11-28T11:42:06.693Z,32.30
2018-11-28T11:44:55.482Z,33.43
2018-11-28T11:47:44.289Z,38.30
2018-11-28T11:50:33.068Z,39.73
2018-11-28T11:53:21.876Z,35.67
2018-11-28T11:56:10.643Z,31.03
2018-11-28T11:58:59.421Z,32.00
2018-11-28T12:01:54.556Z,32.27
2018-11-28T12:04:37.246Z,31.60
2018-11-28T12:07:25.996Z,30.80
2018-11-28T12:10:14.970Z,32.87
2018-11-28T12:13:03.733Z,35.67
2018-11-28T12:15:52.520Z,31.40
2018-11-28T12:18:41.296Z,30.70
2018-11-28T12:21:30.110Z,34.57
2018-11-28T12:24:18.867Z,33.77
2018-11-28T12:27:07.647Z,30.33
2018-11-28T12:29:56.798Z,38.20
2018-11-28T12:32:45.554Z,32.27
2018-11-28T12:35:34.322Z,36.50
2018-11-28T12:38:23.085Z,29.87
2018-11-28T12:41:11.892Z,35.40
2018-11-28T12:44:00.651Z,33.90
2018-11-28T12:46:49.437Z,31.83
2018-11-28T12:49:38.205Z,32.43
2018-11-28T12:52:26.986Z,35.03
2018-11-28T12:55:15.899Z,30.77
2018-11-28T12:58:04.876Z,31.87
2018-11-28T13:00:53.640Z,31.87
2018-11-28T13:03:42.436Z,32.60
2018-11-28T13:06:31.552Z,29.90
2018-11-28T13:09:20.342Z,28.57
2018-11-28T13:12:09.091Z,30.63
2018-11-28T13:14:57.893Z,30.93
2018-11-28T13:17:46.681Z,33.80
2018-11-28T13:20:35.452Z,30.67
2018-11-28T13:23:24.209Z,29.30
2018-11-28T13:26:12.979Z,40.90
2018-11-28T13:29:01.754Z,29.47
2018-11-28T13:31:50.544Z,37.00
2018-11-28T13:34:39.332Z,31.10
2018-11-28T13:37:28.083Z,32.27
2018-11-28T13:40:17.878Z,32.93
2018-11-28T13:43:06.903Z,31.50
2018-11-28T13:45:55.971Z,43.27
2018-11-28T13:48:44.750Z,37.30
2018-11-28T13:51:33.775Z,37.80
2018-11-28T13:54:22.553Z,39.53
2018-11-28T13:57:11.874Z,31.37
2018-11-28T14:00:00.338Z,31.90
2018-11-28T14:02:49.139Z,33.63
2018-11-28T14:05:37.889Z,29.83
2018-11-28T14:08:26.684Z,31.50
2018-11-28T14:11:15.775Z,34.00
2018-11-28T14:14:04.561Z,30.03
2018-11-28T14:16:53.360Z,34.90
2018-11-28T14:19:42.123Z,34.23
2018-11-28T14:22:30.911Z,31.50
2018-11-28T14:25:19.931Z,36.67
2018-11-28T14:28:08.899Z,26.10
2018-11-28T14:30:57.671Z,24.60
2018-11-28T14:33:50.755Z,26.67
2018-11-28T14:36:35.228Z,28.83
2018-11-28T14:39:24.080Z,25.60
2018-11-28T14:42:13.121Z,27.67
2018-11-28T14:45:01.990Z,26.40
2018-11-28T14:47:51.202Z,29.93
2018-11-28T14:50:40.000Z,29.73
2018-11-28T14:53:28.781Z,31.30
2018-11-28T14:56:17.543Z,27.20
2018-11-28T14:59:06.692Z,27.80
2018-11-28T15:01:55.766Z,23.87
2018-11-28T15:04:44.848Z,21.20
2018-11-28T15:07:33.630Z,25.23
2018-11-28T15:10:44.063Z,24.37
2018-11-28T15:13:32.862Z,27.47
2018-11-28T15:16:21.668Z,28.17
2018-11-28T15:19:10.419Z,31.20
2018-11-28T15:21:59.217Z,26.07
2018-11-28T15:24:48.343Z,30.65
2018-11-28T15:27:37.426Z,31.00
2018-11-28T15:30:26.212Z,30.07
2018-11-28T15:33:14.982Z,26.33
2018-11-28T15:36:03.795Z,29.87
2018-11-28T15:38:52.523Z,28.13
2018-11-28T15:41:34.570Z,27.73
2018-11-28T15:44:23.336Z,35.30
2018-11-28T15:47:12.150Z,28.40
2018-11-28T15:50:00.921Z,23.73
2018-11-28T15:52:49.728Z,25.10
2018-11-28T15:55:38.491Z,23.20
2018-11-28T15:58:27.272Z,22.80
2018-11-28T16:01:16.051Z,24.30
2018-11-28T16:04:05.166Z,30.80
2018-11-28T16:06:53.932Z,24.57
2018-11-28T16:10:01.682Z,24.20
2018-11-28T16:12:50.700Z,22.80
2018-11-28T16:15:59.352Z,24.50
2018-11-28T16:18:48.105Z,25.87
2018-11-28T16:21:36.878Z,30.53
2018-11-28T16:24:25.657Z,42.83
2018-11-28T16:27:14.451Z,25.80
2018-11-28T16:30:03.237Z,24.93
2018-11-28T16:32:52.032Z,23.67
2018-11-28T16:35:40.843Z,28.07
2018-11-28T16:38:29.637Z,25.00
2018-11-28T16:41:18.407Z,27.37
2018-11-28T16:44:07.477Z,27.97
2018-11-28T16:46:56.261Z,29.17
2018-11-28T16:49:45.026Z,27.77
2018-11-28T16:52:33.819Z,26.73
2018-11-28T16:55:22.589Z,26.67
2018-11-28T16:58:11.695Z,25.87
2018-11-28T17:01:00.845Z,30.00
2018-11-28T17:03:49.962Z,30.67
2018-11-28T17:06:38.897Z,24.43
2018-11-28T17:09:27.858Z,25.93
2018-11-28T17:12:16.627Z,28.50
2018-11-28T17:15:06.373Z,35.20
2018-11-28T17:17:55.394Z,40.70
2018-11-28T17:20:44.388Z,40.00
2018-11-28T17:23:34.130Z,33.33
2018-11-28T17:26:22.651Z,31.13
2018-11-28T17:29:11.949Z,34.13
2018-11-28T17:32:00.882Z,26.33
2018-11-28T17:34:49.841Z,33.80
2018-11-28T17:37:38.735Z,30.60
2018-11-28T17:40:28.453Z,32.37
2018-11-28T17:43:17.342Z,32.80
2018-11-28T17:46:06.154Z,31.10
2018-11-28T17:48:55.062Z,34.70
2018-11-28T17:51:44.365Z,33.30
2018-11-28T17:54:33.379Z,39.23
2018-11-28T17:57:22.279Z,33.50
2018-11-28T18:00:30.595Z,37.37
2018-11-28T18:03:19.966Z,34.93
2018-11-28T18:06:09.248Z,34.47
2018-11-28T18:08:58.046Z,29.70
2018-11-28T18:11:46.812Z,31.30
2018-11-28T18:14:35.629Z,35.50
2018-11-28T18:17:24.399Z,32.53
2018-11-28T18:20:13.199Z,34.67
2018-11-28T18:23:02.015Z,25.53
2018-11-28T18:25:50.850Z,33.30
2018-11-28T18:28:39.981Z,35.10
2018-11-28T18:31:29.165Z,30.80
2018-11-28T18:34:10.835Z,33.77
2018-11-28T18:36:59.963Z,32.63
2018-11-28T18:39:48.774Z,30.60
2018-11-28T18:42:37.659Z,27.73
2018-11-28T18:45:27.788Z,33.17
2018-11-28T18:48:16.549Z,34.47
2018-11-28T18:51:05.340Z,36.80
2018-11-28T18:53:54.159Z,33.50
2018-11-28T18:56:43.433Z,33.47
2018-11-28T18:59:32.198Z,32.43
2018-11-28T19:02:21.074Z,38.73
2018-11-28T19:05:09.862Z,34.50
2018-11-28T19:07:58.745Z,36.17
2018-11-28T19:10:47.555Z,30.80
2018-11-28T19:13:36.361Z,32.40
2018-11-28T19:16:25.149Z,35.17
2018-11-28T19:19:13.949Z,35.50
2018-11-28T19:22:02.899Z,33.90
2018-11-28T19:24:51.790Z,43.03
2018-11-28T19:27:40.945Z,32.95
2018-11-28T19:30:49.770Z,32.60
2018-11-28T19:33:39.989Z,34.90
2018-11-28T19:36:29.987Z,30.00
2018-11-28T19:39:19.856Z,32.33
2018-11-28T19:45:19.135Z,39.60
2018-11-28T19:48:09.508Z,40.90
2018-11-28T19:50:59.903Z,32.83
2018-11-28T19:53:49.824Z,39.97
2018-11-28T19:56:40.054Z,45.50
2018-11-28T19:59:30.552Z,30.57
2018-11-28T20:02:20.948Z,32.77
2018-11-28T20:05:11.542Z,36.03
2018-11-28T20:08:01.856Z,39.10
2018-11-28T20:10:52.273Z,44.73
2018-11-28T20:13:42.681Z,38.23
2018-11-28T20:19:43.407Z,41.37
2018-11-28T20:22:33.945Z,42.37
2018-11-28T20:25:25.401Z,45.87
2018-11-28T20:28:15.939Z,37.40
2018-11-28T20:31:06.525Z,44.27
2018-11-28T20:33:57.021Z,39.78
2018-11-28T20:36:47.364Z,43.33
2018-11-28T20:39:37.850Z,44.60
2018-11-28T20:42:28.195Z,42.03
2018-11-28T20:45:18.756Z,39.30
2018-11-28T20:48:27.752Z,39.30
2018-11-28T20:51:18.178Z,42.20
2018-11-28T20:54:08.631Z,35.07
2018-11-28T20:56:59.083Z,42.33
2018-11-28T21:00:12.208Z,38.40
2018-11-28T21:03:02.773Z,42.97
2018-11-28T21:05:53.178Z,43.50
2018-11-28T21:08:43.689Z,40.63
2018-11-28T21:11:34.024Z,39.53
2018-11-28T21:14:24.395Z,51.13
2018-11-28T21:17:14.975Z,42.90
2018-11-28T21:20:05.441Z,47.70
2018-11-28T21:23:17.724Z,45.70
2018-11-28T21:26:07.284Z,46.53
2018-11-28T21:28:56.822Z,46.90
2018-11-28T21:31:46.260Z,40.37
2018-11-28T21:34:35.379Z,50.20
2018-11-28T21:37:24.479Z,32.80
2018-11-28T21:40:13.742Z,39.57
2018-11-28T21:43:03.080Z,43.57
2018-11-28T21:45:52.140Z,48.80
2018-11-28T21:48:40.986Z,40.30
2018-11-28T21:51:29.757Z,42.70
2018-11-28T21:54:18.560Z,43.33
2018-11-28T21:57:07.352Z,45.60
2018-11-28T21:59:36.756Z,49.40
2018-11-28T22:02:25.528Z,43.60
2018-11-28T22:05:14.951Z,43.30
2018-11-28T22:08:03.823Z,40.40
2018-11-28T22:10:52.620Z,43.30
2018-11-28T22:13:41.402Z,46.33
2018-11-28T22:16:30.199Z,43.80
2018-11-28T22:19:18.986Z,44.53
2018-11-28T22:22:07.764Z,42.13
2018-11-28T22:24:56.881Z,43.93
2018-11-28T22:27:45.656Z,38.20
2018-11-28T22:30:34.459Z,34.87
2018-11-28T22:33:23.248Z,41.30
2018-11-28T22:36:12.036Z,35.97
2018-11-28T22:39:00.838Z,40.70
2018-11-28T22:41:49.881Z,44.90
2018-11-28T22:44:38.669Z,39.57
2018-11-28T22:47:27.475Z,38.67
2018-11-28T22:50:16.236Z,38.73
2018-11-28T22:52:58.059Z,42.90
2018-11-28T22:55:47.528Z,40.90
2018-11-28T22:58:36.314Z,55.20
2018-11-28T23:01:57.040Z,42.63
2018-11-28T23:04:45.831Z,56.40
2018-11-28T23:07:34.647Z,45.43
2018-11-28T23:10:23.432Z,42.60
2018-11-28T23:13:16.104Z,47.63
2018-11-28T23:16:05.063Z,51.03
2018-11-28T23:18:54.034Z,50.97
2018-11-28T23:21:43.233Z,48.27
2018-11-28T23:24:32.220Z,48.13
2018-11-28T23:27:21.396Z,40.90
2018-11-28T23:30:32.947Z,49.40
2018-11-28T23:33:21.895Z,42.87
2018-11-28T23:36:11.307Z,47.47
2018-11-28T23:39:00.304Z,43.57
2018-11-28T23:41:49.295Z,42.90
2018-11-28T23:44:38.221Z,41.13
2018-11-28T23:47:28.471Z,45.00
2018-11-28T23:50:36.741Z,45.47
2018-11-28T23:53:26.048Z,49.90
2018-11-28T23:56:14.925Z,51.50
2018-11-28T23:59:04.497Z,48.43
